createdAt,value
2017-10-26T00:00:52.502Z,49.23
2017-10-26T00:03:21.608Z,56.70
2017-10-26T00:05:50.720Z,46.53
2017-10-26T00:08:19.057Z,49.73
2017-10-26T00:10:47.397Z,53.57
2017-10-26T00:13:15.727Z,48.10
2017-10-26T00:15:44.048Z,53.90
2017-10-26T00:18:12.397Z,55.77
2017-10-26T00:20:40.715Z,51.40
2017-10-26T00:23:09.030Z,54.43
2017-10-26T00:25:37.380Z,52.20
2017-10-26T00:28:05.694Z,54.30
2017-10-26T00:30:34.053Z,59.97
2017-10-26T00:33:02.375Z,61.37
2017-10-26T00:35:30.694Z,53.30
2017-10-26T00:37:59.770Z,55.23
2017-10-26T00:40:28.146Z,58.13
2017-10-26T00:42:57.997Z,55.40
2017-10-26T00:45:26.372Z,67.00
2017-10-26T00:47:54.711Z,62.87
2017-10-26T00:50:23.035Z,52.07
2017-10-26T00:52:52.125Z,60.80
2017-10-26T00:55:21.231Z,59.57
2017-10-26T00:57:49.579Z,61.17
2017-10-26T01:00:17.907Z,60.80
2017-10-26T01:02:46.235Z,60.60
2017-10-26T01:05:14.578Z,57.73
2017-10-26T01:07:42.933Z,59.37
2017-10-26T01:10:12.079Z,62.20
2017-10-26T01:12:40.449Z,65.00
2017-10-26T01:15:08.829Z,61.80
2017-10-26T01:17:37.200Z,65.97
2017-10-26T01:20:07.455Z,63.83
2017-10-26T01:22:35.850Z,66.50
2017-10-26T01:25:04.257Z,69.50
2017-10-26T01:27:33.369Z,63.07
2017-10-26T01:30:02.480Z,72.43
2017-10-26T01:32:31.581Z,69.30
2017-10-26T01:34:59.936Z,71.20
2017-10-26T01:37:29.144Z,70.27
2017-10-26T01:39:58.243Z,63.83
2017-10-26T01:42:26.547Z,68.20
2017-10-26T01:44:54.847Z,62.80
2017-10-26T01:47:23.176Z,61.27
2017-10-26T01:49:51.478Z,64.87
2017-10-26T01:52:20.578Z,64.53
2017-10-26T01:54:49.735Z,63.50
2017-10-26T01:57:18.074Z,62.53
2017-10-26T01:59:46.403Z,59.17
2017-10-26T02:02:14.754Z,55.77
2017-10-26T02:04:43.070Z,60.83
2017-10-26T02:07:11.412Z,70.50
2017-10-26T02:09:39.760Z,60.50
2017-10-26T02:12:08.837Z,63.87
2017-10-26T02:14:37.182Z,58.37
2017-10-26T02:17:05.502Z,69.70
2017-10-26T02:19:33.843Z,65.30
2017-10-26T02:22:02.196Z,60.23
2017-10-26T02:24:31.281Z,67.37
2017-10-26T02:26:59.624Z,69.80
2017-10-26T02:29:45.565Z,67.40
2017-10-26T02:32:14.656Z,65.33
2017-10-26T02:34:43.758Z,61.93
2017-10-26T02:37:12.868Z,70.60
2017-10-26T02:39:41.196Z,72.70
2017-10-26T02:42:09.515Z,62.47
2017-10-26T02:44:38.586Z,67.87
2017-10-26T02:47:06.927Z,66.20
2017-10-26T02:49:35.246Z,72.63
2017-10-26T02:52:03.605Z,70.63
2017-10-26T02:54:31.955Z,72.57
2017-10-26T02:57:00.276Z,83.57
2017-10-26T02:59:28.634Z,80.77
2017-10-26T03:01:56.940Z,77.00
2017-10-26T03:04:25.287Z,75.47
2017-10-26T03:06:53.618Z,70.00
2017-10-26T03:09:21.941Z,75.13
2017-10-26T03:11:50.268Z,73.73
2017-10-26T03:14:18.594Z,73.87
2017-10-26T03:16:47.693Z,74.20
2017-10-26T03:19:16.778Z,69.07
2017-10-26T03:21:45.118Z,78.07
2017-10-26T03:24:13.440Z,73.57
2017-10-26T03:26:41.773Z,76.93
2017-10-26T03:29:10.174Z,75.70
2017-10-26T03:31:38.503Z,66.63
2017-10-26T03:34:07.568Z,66.00
2017-10-26T03:36:35.903Z,67.60
2017-10-26T03:39:04.231Z,69.20
2017-10-26T03:41:32.538Z,80.30
2017-10-26T03:44:01.614Z,72.73
2017-10-26T03:46:29.962Z,73.20
2017-10-26T03:48:58.284Z,74.20
2017-10-26T03:51:26.654Z,80.60
2017-10-26T03:53:54.972Z,64.27
2017-10-26T03:56:24.065Z,84.70
2017-10-26T03:58:53.143Z,82.00
2017-10-26T04:01:21.484Z,71.83
2017-10-26T04:03:49.801Z,76.03
2017-10-26T04:06:18.126Z,69.90
2017-10-26T04:08:46.439Z,72.23
2017-10-26T04:11:14.786Z,72.60
2017-10-26T04:13:43.092Z,75.33
2017-10-26T04:16:11.388Z,74.50
2017-10-26T04:18:39.700Z,72.00
2017-10-26T04:21:08.824Z,78.77
2017-10-26T04:23:37.918Z,73.43
2017-10-26T04:26:07.014Z,73.83
2017-10-26T04:28:35.341Z,72.37
2017-10-26T04:31:03.733Z,73.20
2017-10-26T04:33:32.075Z,76.07
2017-10-26T04:36:00.386Z,66.47
2017-10-26T04:38:28.708Z,71.23
2017-10-26T04:40:57.048Z,69.50
2017-10-26T04:43:25.368Z,75.30
2017-10-26T04:45:53.698Z,83.30
2017-10-26T04:48:22.029Z,81.07
2017-10-26T04:50:50.358Z,81.57
2017-10-26T04:53:18.668Z,84.17
2017-10-26T04:55:46.976Z,83.73
2017-10-26T04:58:15.297Z,79.47
2017-10-26T05:00:43.625Z,80.97
2017-10-26T05:03:11.960Z,75.20
2017-10-26T05:05:40.284Z,81.67
2017-10-26T05:08:08.611Z,74.60
2017-10-26T05:10:36.945Z,71.20
2017-10-26T05:13:05.266Z,84.73
2017-10-26T05:15:34.365Z,70.33
2017-10-26T05:18:02.693Z,65.30
2017-10-26T05:20:31.006Z,70.50
2017-10-26T05:22:59.329Z,78.10
2017-10-26T05:25:27.840Z,70.70
2017-10-26T05:27:56.175Z,73.07
2017-10-26T05:30:25.300Z,75.97
2017-10-26T05:32:53.625Z,69.43
2017-10-26T05:35:21.954Z,74.47
2017-10-26T05:37:50.284Z,67.50
2017-10-26T05:40:18.599Z,66.93
2017-10-26T05:42:47.684Z,64.83
2017-10-26T05:45:16.768Z,68.87
2017-10-26T05:47:45.090Z,77.43
2017-10-26T05:50:13.431Z,67.47
2017-10-26T05:52:41.769Z,81.40
2017-10-26T05:55:10.109Z,65.90
2017-10-26T05:57:39.969Z,75.87
2017-10-26T06:00:08.289Z,65.47
2017-10-26T06:02:36.632Z,70.20
2017-10-26T06:05:05.001Z,62.87
2017-10-26T06:07:33.309Z,67.20
2017-10-26T06:10:01.664Z,56.77
2017-10-26T06:12:29.970Z,66.57
2017-10-26T06:14:58.339Z,68.70
2017-10-26T06:17:26.734Z,57.23
2017-10-26T06:19:55.103Z,64.97
2017-10-26T06:22:23.475Z,66.93
2017-10-26T06:24:51.805Z,65.17
2017-10-26T06:27:20.137Z,63.27
2017-10-26T06:29:48.469Z,59.83
2017-10-26T06:32:16.779Z,60.00
2017-10-26T06:34:45.869Z,55.03
2017-10-26T06:37:14.176Z,57.90
2017-10-26T06:39:42.515Z,56.63
2017-10-26T06:42:10.848Z,53.90
2017-10-26T06:44:40.013Z,59.40
2017-10-26T06:47:08.332Z,62.83
2017-10-26T06:49:36.655Z,61.03
2017-10-26T06:52:05.001Z,57.93
2017-10-26T06:54:33.331Z,52.33
2017-10-26T06:57:01.668Z,60.20
2017-10-26T06:59:30.036Z,42.73
2017-10-26T07:01:58.353Z,50.20
2017-10-26T07:04:26.705Z,48.87
2017-10-26T07:06:55.035Z,53.83
2017-10-26T07:09:23.336Z,49.33
2017-10-26T07:11:52.437Z,52.20
2017-10-26T07:14:21.545Z,53.47
2017-10-26T07:16:50.663Z,52.60
2017-10-26T07:19:18.991Z,50.03
2017-10-26T07:21:47.334Z,56.17
2017-10-26T07:24:15.643Z,57.70
2017-10-26T07:26:44.005Z,45.10
2017-10-26T07:29:12.329Z,51.30
2017-10-26T07:31:40.673Z,47.23
2017-10-26T07:34:09.011Z,54.60
2017-10-26T07:36:38.104Z,49.00
2017-10-26T07:39:07.183Z,52.40
2017-10-26T07:41:35.521Z,52.30
2017-10-26T07:44:03.839Z,46.43
2017-10-26T07:46:34.775Z,43.77
2017-10-26T07:49:03.085Z,47.07
2017-10-26T07:51:32.184Z,45.97
2017-10-26T07:54:01.317Z,52.93
2017-10-26T07:56:29.722Z,49.53
2017-10-26T07:58:58.066Z,52.93
2017-10-26T08:01:26.365Z,51.13
2017-10-26T08:03:54.695Z,50.87
2017-10-26T08:06:23.742Z,47.40
2017-10-26T08:08:52.060Z,49.97
2017-10-26T08:11:20.391Z,49.63
2017-10-26T08:13:48.714Z,46.60
2017-10-26T08:16:17.053Z,46.23
2017-10-26T08:18:45.388Z,47.27
2017-10-26T08:21:13.709Z,43.87
2017-10-26T08:23:42.043Z,50.40
2017-10-26T08:26:10.365Z,41.67
2017-10-26T08:28:39.475Z,45.73
2017-10-26T08:31:07.876Z,44.37
2017-10-26T08:33:36.218Z,47.57
2017-10-26T08:36:05.308Z,44.77
2017-10-26T08:38:33.647Z,44.83
2017-10-26T08:41:01.998Z,37.10
2017-10-26T08:43:31.095Z,39.30
2017-10-26T08:46:00.188Z,39.33
2017-10-26T08:48:29.279Z,33.17
2017-10-26T08:50:58.380Z,34.27
2017-10-26T08:53:27.491Z,31.83
2017-10-26T08:55:56.600Z,37.60
2017-10-26T08:58:25.025Z,35.87
2017-10-26T09:00:53.346Z,31.07
2017-10-26T09:03:22.450Z,35.30
2017-10-26T09:05:51.574Z,28.53
2017-10-26T09:08:19.896Z,28.87
2017-10-26T09:10:48.214Z,33.60
2017-10-26T09:13:17.302Z,29.50
2017-10-26T09:15:45.620Z,41.20
2017-10-26T09:18:13.943Z,35.20
2017-10-26T09:20:42.248Z,30.47
2017-10-26T09:23:11.350Z,31.80
2017-10-26T09:25:39.676Z,34.67
2017-10-26T09:28:07.989Z,33.67
2017-10-26T09:30:36.307Z,32.63
2017-10-26T09:33:10.797Z,28.23
2017-10-26T09:35:39.121Z,24.87
2017-10-26T09:38:07.445Z,28.43
2017-10-26T09:40:35.770Z,27.70
2017-10-26T09:43:04.867Z,24.77
2017-10-26T09:45:33.231Z,23.67
2017-10-26T09:48:01.556Z,16.10
2017-10-26T09:50:29.884Z,14.87
2017-10-26T09:52:58.199Z,17.23
2017-10-26T09:55:26.527Z,15.53
2017-10-26T09:57:54.854Z,8.57
2017-10-26T10:00:23.936Z,9.17
2017-10-26T10:02:52.256Z,9.70
2017-10-26T10:05:20.572Z,10.17
2017-10-26T10:07:48.980Z,16.50
2017-10-26T10:10:18.070Z,13.70
2017-10-26T10:12:46.412Z,9.23
2017-10-26T10:15:14.758Z,10.97
2017-10-26T10:17:43.832Z,8.10
2017-10-26T10:20:12.166Z,7.60
2017-10-26T10:22:40.502Z,7.10
2017-10-26T10:25:08.856Z,8.20
2017-10-26T10:27:37.189Z,6.20
2017-10-26T10:30:05.538Z,7.87
2017-10-26T10:32:33.874Z,6.57
2017-10-26T10:35:02.220Z,7.87
2017-10-26T10:37:30.550Z,6.27
2017-10-26T10:39:58.863Z,6.60
2017-10-26T10:42:27.185Z,6.43
2017-10-26T10:44:55.511Z,6.13
2017-10-26T10:47:23.828Z,4.77
2017-10-26T10:49:52.119Z,7.40
2017-10-26T10:52:21.970Z,4.50
2017-10-26T10:54:50.259Z,4.23
2017-10-26T10:57:18.611Z,8.63
2017-10-26T11:02:50.661Z,4.20
2017-10-26T11:05:19.735Z,7.27
2017-10-26T11:07:48.097Z,5.63
2017-10-26T11:10:17.019Z,8.00
2017-10-26T11:12:46.220Z,8.67
2017-10-26T11:15:14.549Z,7.73
2017-10-26T11:17:42.887Z,5.10
2017-10-26T11:20:11.226Z,5.43
2017-10-26T11:22:39.692Z,6.97
2017-10-26T11:25:07.998Z,9.87
2017-10-26T11:27:36.322Z,5.00
2017-10-26T11:30:04.642Z,5.47
2017-10-26T11:32:33.131Z,8.70
2017-10-26T11:35:01.446Z,7.67
2017-10-26T11:37:29.755Z,7.13
2017-10-26T11:39:58.068Z,7.57
2017-10-26T11:42:26.380Z,8.30
2017-10-26T11:44:54.695Z,4.00
2017-10-26T11:47:23.007Z,7.03
2017-10-26T11:49:51.326Z,9.00
2017-10-26T11:52:19.635Z,6.27
2017-10-26T11:54:48.024Z,5.13
2017-10-26T11:57:17.144Z,6.03
2017-10-26T11:59:45.469Z,5.60
2017-10-26T12:02:13.788Z,7.83
2017-10-26T12:04:42.892Z,6.37
2017-10-26T12:07:11.976Z,9.03
2017-10-26T12:09:41.063Z,8.20
2017-10-26T12:12:09.380Z,7.07
2017-10-26T12:14:38.512Z,7.20
2017-10-26T12:17:06.858Z,3.77
2017-10-26T12:19:35.936Z,4.97
2017-10-26T12:22:05.050Z,6.40
2017-10-26T12:24:34.159Z,10.90
2017-10-26T12:27:03.286Z,6.37
2017-10-26T12:29:31.623Z,7.83
2017-10-26T12:31:59.946Z,7.00
2017-10-26T12:34:28.275Z,6.47
2017-10-26T12:36:56.605Z,10.70
2017-10-26T12:39:24.952Z,8.23
2017-10-26T12:41:54.056Z,13.00
2017-10-26T12:44:23.133Z,10.47
2017-10-26T12:46:51.455Z,5.90
2017-10-26T12:49:19.773Z,6.13
2017-10-26T12:51:48.103Z,11.50
2017-10-26T12:54:17.212Z,8.60
2017-10-26T12:56:45.530Z,5.40
2017-10-26T12:59:13.892Z,8.63
2017-10-26T13:01:42.990Z,8.00
2017-10-26T13:04:11.283Z,6.57
2017-10-26T13:06:39.619Z,9.00
2017-10-26T13:09:08.752Z,8.63
2017-10-26T13:11:37.054Z,10.53
2017-10-26T13:14:05.385Z,8.50
2017-10-26T13:16:34.482Z,7.07
2017-10-26T13:19:03.582Z,15.57
2017-10-26T13:21:32.673Z,12.30
2017-10-26T13:24:01.012Z,12.50
2017-10-26T13:26:29.363Z,9.23
2017-10-26T13:28:58.101Z,8.53
2017-10-26T13:31:26.600Z,7.73
2017-10-26T13:33:54.904Z,11.90
2017-10-26T13:36:24.001Z,12.60
2017-10-26T13:38:52.358Z,9.77
2017-10-26T13:41:20.672Z,16.93
2017-10-26T13:43:49.762Z,9.03
2017-10-26T13:46:18.854Z,9.97
2017-10-26T13:48:47.220Z,12.43
2017-10-26T13:51:15.560Z,10.63
2017-10-26T13:53:43.880Z,16.50
2017-10-26T13:56:12.201Z,16.40
2017-10-26T13:58:40.533Z,11.70
2017-10-26T14:01:08.848Z,11.37
2017-10-26T14:03:37.163Z,11.20
2017-10-26T14:06:05.490Z,13.90
2017-10-26T14:08:33.830Z,12.47
2017-10-26T14:11:02.154Z,13.30
2017-10-26T14:13:30.435Z,8.77
2017-10-26T14:15:58.811Z,11.30
2017-10-26T14:18:27.255Z,16.80
2017-10-26T14:20:55.557Z,17.07
2017-10-26T14:23:23.875Z,11.17
2017-10-26T14:25:52.196Z,10.87
2017-10-26T14:28:20.513Z,10.27
2017-10-26T14:30:48.840Z,13.63
2017-10-26T14:33:17.938Z,10.77
2017-10-26T14:35:47.017Z,10.90
2017-10-26T14:38:15.331Z,11.67
2017-10-26T14:40:43.651Z,11.53
2017-10-26T14:43:11.975Z,12.23
2017-10-26T14:45:41.080Z,15.10
2017-10-26T14:48:10.153Z,10.83
2017-10-26T14:50:38.472Z,16.57
2017-10-26T14:53:06.809Z,10.77
2017-10-26T14:55:35.119Z,7.77
2017-10-26T14:58:04.221Z,9.70
2017-10-26T15:00:32.553Z,12.70
2017-10-26T15:03:00.904Z,10.63
2017-10-26T15:05:29.237Z,9.90
2017-10-26T15:07:58.066Z,8.47
2017-10-26T15:10:26.403Z,13.00
2017-10-26T15:12:54.711Z,11.47
2017-10-26T15:15:23.785Z,12.50
2017-10-26T15:17:52.113Z,18.33
2017-10-26T15:20:20.427Z,12.87
2017-10-26T15:22:48.749Z,14.33
2017-10-26T15:25:17.102Z,10.70
2017-10-26T15:27:45.449Z,12.43
2017-10-26T15:30:13.772Z,11.17
2017-10-26T15:32:42.095Z,11.37
2017-10-26T15:35:11.176Z,9.50
2017-10-26T15:37:40.248Z,9.27
2017-10-26T15:40:08.569Z,17.10
2017-10-26T15:42:36.911Z,10.90
2017-10-26T15:45:05.243Z,10.70
2017-10-26T15:47:33.563Z,9.40
2017-10-26T15:50:01.889Z,10.93
2017-10-26T15:52:30.988Z,9.97
2017-10-26T15:55:00.085Z,10.07
2017-10-26T15:57:29.169Z,9.90
2017-10-26T15:59:57.480Z,8.70
2017-10-26T16:02:25.804Z,12.10
2017-10-26T16:04:54.123Z,13.00
2017-10-26T16:07:24.055Z,12.30
2017-10-26T16:09:52.402Z,15.13
2017-10-26T16:12:20.731Z,10.50
2017-10-26T16:14:49.038Z,12.87
2017-10-26T16:17:17.374Z,8.50
2017-10-26T16:19:46.484Z,14.23
2017-10-26T16:22:14.797Z,12.73
2017-10-26T16:24:43.133Z,10.60
2017-10-26T16:27:12.214Z,11.70
2017-10-26T16:29:41.340Z,17.13
2017-10-26T16:32:10.416Z,14.23
2017-10-26T16:34:38.741Z,9.10
2017-10-26T16:37:07.057Z,12.00
2017-10-26T16:39:35.380Z,11.32
2017-10-26T16:42:06.324Z,14.30
2017-10-26T16:44:34.872Z,8.53
2017-10-26T16:47:03.216Z,13.47
2017-10-26T16:49:31.540Z,14.63
2017-10-26T16:51:59.881Z,9.97
2017-10-26T16:54:28.906Z,12.67
2017-10-26T16:56:57.240Z,12.03
2017-10-26T16:59:25.629Z,20.80
2017-10-26T17:01:53.936Z,11.03
2017-10-26T17:04:22.246Z,12.70
2017-10-26T17:06:50.561Z,11.17
2017-10-26T17:09:18.915Z,13.07
2017-10-26T17:11:48.038Z,14.93
2017-10-26T17:14:16.461Z,14.30
2017-10-26T17:16:44.889Z,15.57
2017-10-26T17:19:14.803Z,13.10
2017-10-26T17:21:44.277Z,9.93
2017-10-26T17:24:13.762Z,12.07
2017-10-26T17:26:42.322Z,13.27
2017-10-26T17:29:10.672Z,10.27
2017-10-26T17:31:38.987Z,14.07
2017-10-26T17:34:08.077Z,11.23
2017-10-26T17:36:37.169Z,10.10
2017-10-26T17:39:05.526Z,16.57
2017-10-26T17:41:35.333Z,17.40
2017-10-26T17:44:03.640Z,13.73
2017-10-26T17:46:32.000Z,13.67
2017-10-26T17:49:01.062Z,12.33
2017-10-26T17:51:30.454Z,12.33
2017-10-26T17:53:58.772Z,13.13
2017-10-26T17:56:27.122Z,11.70
2017-10-26T17:58:55.441Z,15.10
2017-10-26T18:01:23.841Z,12.67
2017-10-26T18:03:52.148Z,18.17
2017-10-26T18:06:21.340Z,11.83
2017-10-26T18:08:50.324Z,10.50
2017-10-26T18:11:18.634Z,15.60
2017-10-26T18:13:47.720Z,17.67
2017-10-26T18:16:16.036Z,14.50
2017-10-26T18:18:44.346Z,17.53
2017-10-26T18:21:12.675Z,9.50
2017-10-26T18:23:41.771Z,13.40
2017-10-26T18:26:10.132Z,18.47
2017-10-26T18:28:38.448Z,12.60
2017-10-26T18:31:06.822Z,7.60
2017-10-26T18:33:35.896Z,12.37
2017-10-26T18:36:04.222Z,15.00
2017-10-26T18:38:32.535Z,13.90
2017-10-26T18:41:00.915Z,11.70
2017-10-26T18:43:29.222Z,14.03
2017-10-26T18:45:57.556Z,13.20
2017-10-26T18:48:25.891Z,10.97
2017-10-26T18:50:54.215Z,10.00
2017-10-26T18:53:22.526Z,10.70
2017-10-26T18:55:50.832Z,15.17
2017-10-26T18:58:19.165Z,10.97
2017-10-26T19:00:47.512Z,24.10
2017-10-26T19:03:16.583Z,24.60
2017-10-26T19:05:44.904Z,14.10
2017-10-26T19:08:13.240Z,11.93
2017-10-26T19:10:41.557Z,14.57
2017-10-26T19:13:10.641Z,20.33
2017-10-26T19:15:39.743Z,16.43
2017-10-26T19:18:08.846Z,12.00
2017-10-26T19:20:37.943Z,14.90
2017-10-26T19:23:07.054Z,13.10
2017-10-26T19:25:36.121Z,12.70
2017-10-26T19:28:04.479Z,12.87
2017-10-26T19:30:32.798Z,11.23
2017-10-26T19:33:01.116Z,15.83
2017-10-26T19:35:29.453Z,12.50
2017-10-26T19:37:57.776Z,10.47
2017-10-26T19:40:26.094Z,12.40
2017-10-26T19:42:54.392Z,9.60
2017-10-26T19:45:22.723Z,9.43
2017-10-26T19:47:51.052Z,13.00
2017-10-26T19:50:19.382Z,13.43
2017-10-26T19:52:47.692Z,13.33
2017-10-26T19:55:16.024Z,12.37
2017-10-26T19:57:44.378Z,9.80
2017-10-26T20:00:12.675Z,12.13
2017-10-26T20:02:40.994Z,15.27
2017-10-26T20:05:09.290Z,12.83
2017-10-26T20:07:37.754Z,14.07
2017-10-26T20:10:06.083Z,12.37
2017-10-26T20:12:34.419Z,18.47
2017-10-26T20:15:02.759Z,13.77
2017-10-26T20:17:31.886Z,16.30
2017-10-26T20:20:01.011Z,14.67
2017-10-26T20:22:29.334Z,17.03
2017-10-26T20:24:57.668Z,14.43
2017-10-26T20:27:26.000Z,11.03
2017-10-26T20:29:54.310Z,11.63
2017-10-26T20:32:23.464Z,12.60
2017-10-26T20:34:51.802Z,13.40
2017-10-26T20:37:20.119Z,10.27
2017-10-26T20:39:48.468Z,14.20
2017-10-26T20:42:16.779Z,11.93
2017-10-26T20:44:45.081Z,10.23
2017-10-26T20:47:13.430Z,7.27
2017-10-26T20:49:47.225Z,16.00
2017-10-26T20:52:20.966Z,11.20
2017-10-26T20:54:54.699Z,13.50
2017-10-26T20:57:29.256Z,15.57
2017-10-26T21:03:06.155Z,13.23
2017-10-26T21:05:39.901Z,12.43
2017-10-26T21:08:08.224Z,21.10
2017-10-26T21:10:41.998Z,20.07
2017-10-26T21:13:16.680Z,17.40
2017-10-26T21:15:44.995Z,15.27
2017-10-26T21:18:14.104Z,15.30
2017-10-26T21:20:43.183Z,18.20
2017-10-26T21:23:11.524Z,10.87
2017-10-26T21:25:39.839Z,9.30
2017-10-26T21:28:08.163Z,11.83
2017-10-26T21:30:36.503Z,10.80
2017-10-26T21:33:04.828Z,12.80
2017-10-26T21:35:33.134Z,11.67
2017-10-26T21:38:01.426Z,12.93
2017-10-26T21:40:29.773Z,12.23
2017-10-26T21:42:58.104Z,13.30
2017-10-26T21:45:26.445Z,13.77
2017-10-26T21:47:54.742Z,12.77
2017-10-26T21:50:23.053Z,15.67
2017-10-26T21:52:51.364Z,14.33
2017-10-26T21:55:20.447Z,13.93
2017-10-26T21:57:49.529Z,17.40
2017-10-26T22:00:17.880Z,15.20
2017-10-26T22:02:46.199Z,14.50
2017-10-26T22:05:14.530Z,14.30
2017-10-26T22:07:42.851Z,14.90
2017-10-26T22:10:11.174Z,13.10
2017-10-26T22:12:40.278Z,19.00
2017-10-26T22:15:08.613Z,12.90
2017-10-26T22:17:36.922Z,11.10
2017-10-26T22:20:06.013Z,14.73
2017-10-26T22:22:34.329Z,13.00
2017-10-26T22:25:02.660Z,11.23
2017-10-26T22:27:30.978Z,9.50
2017-10-26T22:30:00.039Z,9.70
2017-10-26T22:32:28.333Z,7.63
2017-10-26T22:34:56.674Z,13.80
2017-10-26T22:37:25.044Z,6.80
2017-10-26T22:39:53.344Z,8.63
2017-10-26T22:42:21.653Z,6.37
2017-10-26T22:44:49.962Z,6.80
2017-10-26T22:47:19.597Z,5.70
2017-10-26T22:49:47.921Z,9.93
2017-10-26T22:52:16.233Z,6.90
2017-10-26T22:54:44.617Z,10.67
2017-10-26T22:57:12.963Z,5.63
2017-10-26T22:59:41.290Z,10.80
2017-10-26T23:02:09.611Z,7.27
2017-10-26T23:04:37.933Z,9.47
2017-10-26T23:07:07.069Z,7.70
2017-10-26T23:09:35.377Z,3.83
2017-10-26T23:12:03.680Z,6.70
2017-10-26T23:14:31.992Z,6.73
2017-10-26T23:17:00.293Z,4.57
2017-10-26T23:19:28.611Z,5.33
2017-10-26T23:21:56.925Z,6.07
2017-10-26T23:24:25.250Z,5.10
2017-10-26T23:26:53.539Z,9.60
2017-10-26T23:29:21.867Z,10.70
2017-10-26T23:31:50.945Z,5.73
2017-10-26T23:34:19.243Z,8.00
2017-10-26T23:36:48.339Z,19.33
2017-10-26T23:39:17.423Z,6.13
2017-10-26T23:41:45.749Z,10.43
2017-10-26T23:44:14.136Z,4.17
2017-10-26T23:46:42.474Z,5.67
2017-10-26T23:49:10.796Z,4.50
2017-10-26T23:51:39.109Z,8.37
2017-10-26T23:54:07.562Z,7.67
2017-10-26T23:56:35.943Z,9.53
2017-10-26T23:59:04.293Z,8.80
